Time;durP1;ratioP1;P1;durP2;ratioP2;P2;SDS_P1;SDS_P2;PMS_P1;PMS_P2;Temp;Humidity;BMP_temperature;BMP_pressure;BME280_temperature;BME280_humidity;BME280_pressure;Samples;Min_cycle;Max_cycle;Signal;HPM_P1;HPM_P2
2023/06/13 00:01:48;;;;;;;24.33;16.85;;;18.20;99.90;;;;;;5033801;28;20021;-78
2023/06/13 00:04:24;;;;;;;22.85;16.80;;;18.10;99.90;;;;;;5030179;28;20037;-78
2023/06/13 00:06:54;;;;;;;22.17;16.30;;;18.10;99.90;;;;;;5025483;28;20017;-77
2023/06/13 00:09:23;;;;;;;;;;;18.10;99.90;;;;;;5031313;28;20029;-78
2023/06/13 00:11:52;;;;;;;21.60;16.52;;;18.10;99.90;;;;;;5027220;28;20278;-79
2023/06/13 00:14:19;;;;;;;22.92;15.68;;;18.10;99.90;;;;;;5008233;28;20034;-79
2023/06/13 00:16:50;;;;;;;25.52;15.45;;;18.10;99.90;;;;;;5029574;28;20067;-78
2023/06/13 00:19:16;;;;;;;;;;;18.10;99.90;;;;;;5032280;28;20045;-78
2023/06/13 00:21:43;;;;;;;23.40;16.15;;;18.00;99.90;;;;;;5007212;28;20330;-78
2023/06/13 00:24:08;;;;;;;22.08;16.30;;;18.00;99.90;;;;;;5017681;28;20603;-79
2023/06/13 00:26:34;;;;;;;28.55;16.58;;;18.00;99.90;;;;;;5033290;28;20116;-79
2023/06/13 00:29:00;;;;;;;22.85;15.77;;;17.90;99.90;;;;;;5017731;28;20347;-78
2023/06/13 00:31:28;;;;;;;26.73;16.80;;;17.90;99.90;;;;;;5039024;28;20029;-78
2023/06/13 00:33:58;;;;;;;22.85;15.15;;;17.90;99.90;;;;;;5028666;28;20052;-78
2023/06/13 00:36:25;;;;;;;19.60;15.30;;;17.80;99.90;;;;;;5033120;28;20101;-78
2023/06/13 00:39:00;;;;;;;20.02;15.35;;;17.80;99.90;;;;;;5047454;28;20079;-79
2023/06/13 00:41:26;;;;;;;21.02;14.57;;;17.80;99.90;;;;;;5026619;28;20021;-78
2023/06/13 00:43:52;;;;;;;20.33;13.35;;;17.80;99.90;;;;;;5031483;28;20028;-77
2023/06/13 00:46:24;;;;;;;21.20;13.75;;;17.70;99.90;;;;;;5024456;28;20027;-77
2023/06/13 00:48:49;;;;;;;20.02;13.90;;;17.70;99.90;;;;;;5042464;28;20036;-77
2023/06/13 00:51:16;;;;;;;19.38;13.23;;;17.70;99.90;;;;;;5033541;28;20025;-78
2023/06/13 00:53:46;;;;;;;22.58;13.45;;;17.70;99.90;;;;;;5033609;28;20033;-77
2023/06/13 00:56:12;;;;;;;16.48;10.77;;;17.70;99.90;;;;;;5032553;28;20390;-79
2023/06/13 00:58:37;;;;;;;20.65;13.75;;;17.60;99.90;;;;;;5033110;28;20059;-80
2023/06/13 01:01:04;;;;;;;20.13;12.95;;;17.60;99.90;;;;;;5033774;28;20028;-79
2023/06/13 01:03:34;;;;;;;19.40;13.35;;;17.60;99.90;;;;;;5033498;28;20021;-79
2023/06/13 01:06:00;;;;;;;20.77;13.95;;;17.50;99.90;;;;;;5032658;28;20028;-79
2023/06/13 01:08:27;;;;;;;19.55;13.88;;;17.40;99.90;;;;;;5032927;28;20029;-79
2023/06/13 01:11:20;;;;;;;22.98;13.98;;;17.40;99.90;;;;;;5032820;28;20025;-79
2023/06/13 01:13:56;;;;;;;25.25;15.02;;;17.40;99.90;;;;;;5031506;28;20055;-78
2023/06/13 01:16:33;;;;;;;26.55;14.95;;;17.30;99.90;;;;;;5032448;28;20029;-79
2023/06/13 01:19:03;;;;;;;21.63;14.73;;;17.20;99.90;;;;;;5032321;28;20111;-79
2023/06/13 01:21:31;;;;;;;22.58;14.35;;;17.20;99.90;;;;;;5032581;28;20047;-79
2023/06/13 01:24:02;;;;;;;21.42;14.55;;;17.10;99.90;;;;;;5014800;28;20110;-79
2023/06/13 01:26:47;;;;;;;;;;;17.00;99.90;;;;;;5032962;28;20087;-79
2023/06/13 01:29:18;;;;;;;17.95;11.85;;;17.00;99.90;;;;;;5031936;28;19905;-79
2023/06/13 01:31:47;;;;;;;18.08;11.40;;;17.00;99.90;;;;;;5032154;28;20029;-79
2023/06/13 01:34:13;;;;;;;15.27;10.82;;;16.90;99.90;;;;;;5014285;28;20398;-79
2023/06/13 01:36:39;;;;;;;14.80;11.05;;;16.90;99.90;;;;;;5032453;28;20489;-79
2023/06/13 01:39:05;;;;;;;14.38;9.60;;;16.80;99.90;;;;;;5032184;28;20045;-78
2023/06/13 01:41:31;;;;;;;15.75;9.27;;;16.70;99.90;;;;;;5032408;28;20099;-79
2023/06/13 01:43:56;;;;;;;17.25;8.82;;;16.70;99.90;;;;;;5014417;28;20064;-78
2023/06/13 01:46:27;;;;;;;13.25;9.30;;;16.60;99.90;;;;;;5014380;28;20033;-79
2023/06/13 01:49:08;;;;;;;12.48;8.90;;;16.50;99.90;;;;;;5031732;28;20112;-78
2023/06/13 01:51:38;;;;;;;;;;;16.50;99.90;;;;;;5032592;28;20057;-78
2023/06/13 01:54:09;;;;;;;13.75;8.02;;;16.40;99.90;;;;;;5031983;28;19939;-79
2023/06/13 01:56:37;;;;;;;12.07;8.18;;;16.40;99.90;;;;;;5011090;28;20024;-81
2023/06/13 01:59:15;;;;;;;12.18;8.15;;;16.30;99.90;;;;;;4997581;28;20042;-79
2023/06/13 02:01:42;;;;;;;13.77;8.63;;;16.20;99.90;;;;;;4994442;28;20022;-79
2023/06/13 02:04:08;;;;;;;14.90;8.15;;;16.20;99.90;;;;;;4994217;28;20037;-77
2023/06/13 02:06:35;;;;;;;14.48;7.93;;;16.10;99.90;;;;;;5011771;28;20038;-77
2023/06/13 02:09:01;;;;;;;10.23;6.95;;;16.10;99.90;;;;;;4994309;28;20032;-79
2023/06/13 02:11:27;;;;;;;9.98;6.63;;;16.00;99.90;;;;;;5011897;28;20032;-79
2023/06/13 02:13:53;;;;;;;13.13;6.25;;;16.00;99.90;;;;;;4994097;28;20041;-78
2023/06/13 02:16:18;;;;;;;12.27;5.57;;;15.90;99.90;;;;;;5011783;28;20030;-79
2023/06/13 02:18:47;;;;;;;13.02;5.72;;;15.80;99.90;;;;;;4993814;28;20054;-80
2023/06/13 02:21:13;;;;;;;8.02;5.68;;;15.70;99.90;;;;;;5012074;28;20053;-79
2023/06/13 02:23:39;;;;;;;9.40;6.60;;;15.70;99.90;;;;;;5011720;28;20080;-79
2023/06/13 02:26:07;;;;;;;14.38;6.18;;;15.60;99.90;;;;;;5012294;28;20553;-78
2023/06/13 02:28:33;;;;;;;11.23;6.82;;;15.60;99.90;;;;;;5012031;28;20088;-78
2023/06/13 02:30:59;;;;;;;13.77;8.20;;;15.50;99.90;;;;;;5011594;28;20022;-79
2023/06/13 02:33:25;;;;;;;13.40;9.50;;;15.50;99.90;;;;;;4993828;28;20482;-79
2023/06/13 02:35:51;;;;;;;22.52;13.40;;;15.40;99.90;;;;;;5011454;28;20026;-78
2023/06/13 02:38:18;;;;;;;16.83;11.52;;;15.40;99.90;;;;;;5010570;28;20036;-79
2023/06/13 02:40:44;;;;;;;18.45;12.73;;;15.30;99.90;;;;;;5011566;28;20109;-78
2023/06/13 02:43:10;;;;;;;21.80;12.52;;;15.30;99.90;;;;;;5011959;28;20105;-78
2023/06/13 02:45:36;;;;;;;17.75;11.30;;;15.20;99.90;;;;;;5011763;28;20029;-78
2023/06/13 02:48:02;;;;;;;19.25;12.07;;;15.20;99.90;;;;;;5011778;28;20025;-78
2023/06/13 02:50:27;;;;;;;18.48;12.18;;;15.10;99.90;;;;;;5012013;28;20026;-78
2023/06/13 02:52:53;;;;;;;18.55;12.07;;;15.10;99.90;;;;;;4994017;28;20176;-78
2023/06/13 02:55:20;;;;;;;15.10;11.90;;;15.10;99.90;;;;;;5011539;28;20030;-79
2023/06/13 02:57:46;;;;;;;16.10;10.32;;;15.10;99.90;;;;;;5011088;28;20034;-80
2023/06/13 03:00:15;;;;;;;12.55;8.95;;;15.10;99.90;;;;;;5010952;28;20018;-78
2023/06/13 03:02:40;;;;;;;17.13;8.82;;;15.10;99.90;;;;;;5011164;28;20025;-80
2023/06/13 03:05:15;;;;;;;12.93;7.82;;;15.10;99.90;;;;;;5011818;28;20129;-79
2023/06/13 03:07:46;;;;;;;12.63;7.30;;;15.10;99.90;;;;;;5011533;28;20024;-78
2023/06/13 03:10:12;;;;;;;12.88;8.25;;;15.10;99.90;;;;;;5011563;28;20028;-78
2023/06/13 03:12:38;;;;;;;15.02;7.50;;;15.10;99.90;;;;;;4993735;28;20333;-80
2023/06/13 03:15:05;;;;;;;13.57;7.53;;;15.10;99.90;;;;;;4993314;28;20042;-78
2023/06/13 03:17:30;;;;;;;14.60;7.70;;;15.00;99.90;;;;;;4993637;28;20026;-78
2023/06/13 03:19:56;;;;;;;13.60;7.38;;;15.00;99.90;;;;;;5011064;28;20237;-80
2023/06/13 03:22:22;;;;;;;12.60;6.97;;;14.90;99.90;;;;;;5011746;28;20072;-78
2023/06/13 03:24:48;;;;;;;9.63;6.80;;;14.90;99.90;;;;;;4993997;28;20026;-78
2023/06/13 03:27:13;;;;;;;9.10;6.88;;;14.90;99.90;;;;;;4994075;28;20107;-77
2023/06/13 03:29:40;;;;;;;9.43;6.50;;;14.80;99.90;;;;;;5011262;28;20092;-77
2023/06/13 03:32:10;;;;;;;9.98;6.63;;;14.80;99.90;;;;;;5011462;28;20034;-80
2023/06/13 03:34:38;;;;;;;9.85;6.47;;;14.80;99.90;;;;;;5011016;28;20034;-78
2023/06/13 03:37:08;;;;;;;11.07;6.32;;;14.70;99.90;;;;;;4993933;28;20029;-78
2023/06/13 03:39:35;;;;;;;9.00;6.75;;;14.70;99.90;;;;;;5014654;28;20034;-80
2023/06/13 03:42:01;;;;;;;8.98;6.22;;;14.60;99.90;;;;;;5013512;28;20029;-79
2023/06/13 03:44:28;;;;;;;13.05;6.80;;;14.60;99.90;;;;;;4997438;28;20026;-78
2023/06/13 03:46:57;;;;;;;13.85;6.38;;;14.60;99.90;;;;;;5014959;28;20101;-79
2023/06/13 03:49:23;;;;;;;12.57;6.60;;;14.50;99.90;;;;;;5013081;28;20260;-79
2023/06/13 03:51:49;;;;;;;11.57;6.65;;;14.50;99.90;;;;;;5014322;28;20025;-78
2023/06/13 03:54:15;;;;;;;9.80;6.63;;;14.50;99.90;;;;;;4996752;28;20034;-78
2023/06/13 03:56:41;;;;;;;10.48;6.38;;;14.40;99.90;;;;;;4994399;28;20051;-77
2023/06/13 03:59:07;;;;;;;8.55;6.28;;;14.40;99.90;;;;;;5006818;28;20476;-78
2023/06/13 04:01:32;;;;;;;11.30;6.32;;;14.40;99.90;;;;;;5034360;28;20094;-78
2023/06/13 04:03:58;;;;;;;11.88;7.18;;;14.40;99.90;;;;;;5033897;28;20025;-79
2023/06/13 04:06:25;;;;;;;12.90;7.43;;;14.40;99.90;;;;;;5034562;28;20348;-79
2023/06/13 04:08:52;;;;;;;9.68;6.43;;;14.40;99.90;;;;;;5033794;28;20029;-78
2023/06/13 04:11:18;;;;;;;14.02;6.53;;;14.30;99.90;;;;;;5033963;28;20025;-77
2023/06/13 04:13:44;;;;;;;9.57;6.80;;;14.30;99.90;;;;;;5033849;28;20060;-78
2023/06/13 04:16:10;;;;;;;13.82;7.10;;;14.30;99.90;;;;;;5016682;28;20127;-78
2023/06/13 04:18:37;;;;;;;9.60;7.20;;;14.30;99.90;;;;;;5016105;28;20045;-79
2023/06/13 04:21:06;;;;;;;12.93;6.72;;;14.20;99.90;;;;;;5027677;28;20026;-78
2023/06/13 04:23:32;;;;;;;10.05;7.03;;;14.20;99.90;;;;;;5022945;28;20021;-77
2023/06/13 04:26:02;;;;;;;11.75;7.00;;;14.20;99.90;;;;;;5002701;28;20032;-77
2023/06/13 04:28:29;;;;;;;10.50;7.43;;;14.20;99.90;;;;;;5012707;28;20116;-77
2023/06/13 04:30:56;;;;;;;12.30;7.25;;;14.10;99.90;;;;;;5012920;28;20245;-77
2023/06/13 04:33:25;;;;;;;11.13;7.72;;;14.10;99.90;;;;;;5012317;28;20452;-77
2023/06/13 04:35:50;;;;;;;9.55;7.25;;;14.10;99.90;;;;;;5012503;28;20375;-77
2023/06/13 04:38:20;;;;;;;13.43;7.43;;;14.10;99.90;;;;;;5013487;28;20192;-76
2023/06/13 04:40:46;;;;;;;10.65;7.00;;;14.10;99.90;;;;;;4995760;28;20028;-80
2023/06/13 04:43:14;;;;;;;10.63;7.22;;;14.10;99.90;;;;;;5013862;28;20026;-78
2023/06/13 04:45:42;;;;;;;11.52;7.93;;;14.10;99.90;;;;;;5013921;28;20027;-79
2023/06/13 04:48:09;;;;;;;14.27;7.60;;;14.10;99.90;;;;;;5013242;28;20018;-79
2023/06/13 04:50:37;;;;;;;13.88;7.88;;;14.10;99.90;;;;;;5013102;28;20419;-78
2023/06/13 04:53:05;;;;;;;12.25;7.30;;;14.10;99.90;;;;;;5012975;28;20037;-79
2023/06/13 04:55:32;;;;;;;9.50;7.00;;;14.10;99.90;;;;;;4995539;28;20034;-78
2023/06/13 04:57:59;;;;;;;15.48;8.13;;;14.10;99.90;;;;;;5011982;28;20033;-79
2023/06/13 05:00:25;;;;;;;13.00;7.45;;;14.10;99.90;;;;;;5013477;28;20024;-78
2023/06/13 05:02:51;;;;;;;14.20;7.47;;;14.10;99.90;;;;;;5012035;28;20464;-79
2023/06/13 05:05:18;;;;;;;12.93;7.72;;;14.10;99.90;;;;;;5014381;28;20110;-79
2023/06/13 05:07:44;;;;;;;11.98;7.60;;;14.00;99.90;;;;;;5014226;28;20041;-78
2023/06/13 05:10:10;;;;;;;10.45;7.55;;;14.10;99.90;;;;;;5013165;28;20049;-79
2023/06/13 05:12:35;;;;;;;13.05;7.50;;;14.10;99.90;;;;;;5013054;28;20038;-80
2023/06/13 05:15:01;;;;;;;13.32;8.45;;;14.10;99.90;;;;;;5012519;28;20029;-79
2023/06/13 05:17:27;;;;;;;13.98;7.75;;;14.10;99.90;;;;;;5013180;28;20022;-79
2023/06/13 05:19:54;;;;;;;14.23;7.93;;;14.10;99.90;;;;;;4994891;28;20041;-78
2023/06/13 05:22:20;;;;;;;12.00;6.95;;;14.10;99.90;;;;;;5011352;28;20026;-79
2023/06/13 05:24:45;;;;;;;11.50;7.43;;;14.10;99.90;;;;;;5013142;28;20029;-78
2023/06/13 05:27:13;;;;;;;11.07;7.25;;;14.10;99.90;;;;;;5012708;28;20089;-78
2023/06/13 05:29:38;;;;;;;10.18;7.28;;;14.00;99.90;;;;;;4995065;28;20057;-77
2023/06/13 05:32:05;;;;;;;15.57;7.53;;;14.10;99.90;;;;;;5012475;28;20091;-80
2023/06/13 05:34:31;;;;;;;10.88;7.72;;;14.10;99.90;;;;;;4994697;28;20547;-79
2023/06/13 05:36:57;;;;;;;10.02;7.15;;;14.10;99.90;;;;;;5012285;28;20068;-79
2023/06/13 05:39:22;;;;;;;11.60;7.05;;;14.20;99.90;;;;;;4994870;28;20668;-79
2023/06/13 05:41:48;;;;;;;9.73;6.88;;;14.20;99.90;;;;;;4995135;28;20028;-80
2023/06/13 05:44:14;;;;;;;9.10;6.65;;;14.20;99.90;;;;;;5013102;28;20026;-78
2023/06/13 05:46:41;;;;;;;10.52;7.55;;;14.30;99.90;;;;;;5012407;28;20419;-79
2023/06/13 05:49:07;;;;;;;13.52;7.85;;;14.30;99.90;;;;;;5012190;28;20018;-80
2023/06/13 05:51:33;;;;;;;10.68;6.90;;;14.40;99.90;;;;;;5012203;28;20210;-80
2023/06/13 05:53:59;;;;;;;11.07;7.20;;;14.40;99.90;;;;;;5012178;28;20033;-79
2023/06/13 05:56:25;;;;;;;8.98;6.60;;;14.50;99.90;;;;;;5012337;28;20061;-78
2023/06/13 05:58:51;;;;;;;13.93;7.53;;;14.50;99.90;;;;;;5015972;28;20010;-78
2023/06/13 06:01:19;;;;;;;13.93;7.72;;;14.60;99.90;;;;;;5013969;28;20104;-78
2023/06/13 06:03:46;;;;;;;12.52;8.00;;;14.60;99.90;;;;;;5032232;28;20534;-78
2023/06/13 06:06:12;;;;;;;12.57;7.95;;;14.70;99.90;;;;;;5014209;28;20018;-80
2023/06/13 06:08:38;;;;;;;13.95;7.35;;;14.70;99.90;;;;;;5014203;28;20028;-78
2023/06/13 06:11:04;;;;;;;11.50;8.18;;;14.80;99.90;;;;;;5032579;28;20026;-78
2023/06/13 06:13:29;;;;;;;16.65;8.95;;;14.90;99.90;;;;;;5025573;28;20045;-78
2023/06/13 06:15:55;;;;;;;15.95;7.32;;;15.00;99.90;;;;;;5018543;28;20075;-80
2023/06/13 06:18:22;;;;;;;16.92;8.38;;;15.10;99.90;;;;;;5017332;28;20049;-79
2023/06/13 06:20:47;;;;;;;14.32;7.28;;;15.20;99.90;;;;;;5003484;28;20026;-79
2023/06/13 06:23:14;;;;;;;14.40;6.97;;;15.30;99.90;;;;;;4982259;28;20378;-78
2023/06/13 06:25:40;;;;;;;12.80;7.05;;;15.50;99.90;;;;;;5004908;28;20014;-78
2023/06/13 06:28:06;;;;;;;17.38;6.78;;;15.60;99.90;;;;;;5003633;28;20419;-80
2023/06/13 06:30:32;;;;;;;12.68;7.18;;;15.70;99.90;;;;;;5001447;28;20032;-78
2023/06/13 06:32:58;;;;;;;12.68;6.28;;;15.80;99.90;;;;;;5004432;28;20026;-78
2023/06/13 06:35:23;;;;;;;10.48;7.40;;;15.90;99.90;;;;;;5016348;28;20030;-78
2023/06/13 06:37:49;;;;;;;12.20;6.47;;;16.00;99.90;;;;;;5002508;28;20030;-80
2023/06/13 06:40:16;;;;;;;10.60;6.88;;;16.10;99.90;;;;;;5002290;28;20101;-79
2023/06/13 06:42:42;;;;;;;10.63;7.05;;;16.20;99.90;;;;;;5003110;28;20014;-78
2023/06/13 06:45:09;;;;;;;10.77;6.90;;;16.40;99.90;;;;;;5001068;28;20400;-78
2023/06/13 06:47:36;;;;;;;11.20;6.70;;;16.50;99.90;;;;;;4976822;28;20022;-80
2023/06/13 06:50:01;;;;;;;13.60;7.13;;;16.60;99.90;;;;;;4992661;28;20100;-78
2023/06/13 06:52:28;;;;;;;11.70;6.72;;;16.70;99.90;;;;;;4992900;28;20018;-79
2023/06/13 06:54:54;;;;;;;12.50;7.28;;;16.80;99.90;;;;;;4993713;28;20030;-78
2023/06/13 06:57:19;;;;;;;12.30;7.07;;;16.90;99.90;;;;;;4975878;28;20113;-80
2023/06/13 06:59:45;;;;;;;11.20;7.25;;;17.00;99.90;;;;;;4975183;28;20046;-78
2023/06/13 07:02:11;;;;;;;15.85;7.75;;;17.10;99.90;;;;;;4992960;28;20027;-79
2023/06/13 07:04:37;;;;;;;10.38;7.40;;;17.10;99.90;;;;;;5003632;28;20544;-79
2023/06/13 07:07:03;;;;;;;12.02;6.28;;;17.20;99.90;;;;;;4990385;28;20049;-79
2023/06/13 07:09:29;;;;;;;12.77;6.35;;;17.30;99.90;;;;;;4991151;28;20086;-79
2023/06/13 07:11:57;;;;;;;13.02;7.38;;;17.50;99.90;;;;;;4996594;28;20473;-79
2023/06/13 07:14:24;;;;;;;15.82;7.20;;;17.60;99.90;;;;;;5002565;28;20030;-78
2023/06/13 07:16:50;;;;;;;12.00;7.57;;;17.60;99.90;;;;;;5004206;28;20034;-78
2023/06/13 07:19:16;;;;;;;13.57;7.10;;;17.80;99.90;;;;;;5017721;28;20049;-80
2023/06/13 07:21:41;;;;;;;16.15;8.20;;;17.90;99.90;;;;;;5026036;28;20058;-82
2023/06/13 07:24:07;;;;;;;17.73;9.05;;;17.90;99.90;;;;;;5015669;28;20065;-80
2023/06/13 07:26:33;;;;;;;14.70;8.63;;;18.00;99.90;;;;;;5015420;28;20030;-81
2023/06/13 07:28:59;;;;;;;12.70;8.48;;;18.10;99.90;;;;;;5006381;28;20105;-82
2023/06/13 07:31:24;;;;;;;11.40;8.27;;;18.20;99.90;;;;;;5018762;28;20069;-77
2023/06/13 07:33:50;;;;;;;16.90;8.13;;;18.30;99.90;;;;;;5022794;28;20421;-79
2023/06/13 07:36:16;;;;;;;11.30;8.02;;;18.40;99.90;;;;;;4998098;28;20030;-80
2023/06/13 07:38:42;;;;;;;12.27;7.75;;;18.50;99.90;;;;;;5014818;28;20030;-78
2023/06/13 07:41:09;;;;;;;11.18;7.32;;;18.60;99.90;;;;;;5021089;28;20360;-81
2023/06/13 07:43:35;;;;;;;12.43;7.25;;;18.70;99.90;;;;;;5023481;28;20030;-79
2023/06/13 07:46:01;;;;;;;15.68;7.97;;;18.80;99.90;;;;;;5039887;28;20028;-79
2023/06/13 07:48:26;;;;;;;13.27;8.30;;;19.00;99.90;;;;;;5024660;28;20026;-79
2023/06/13 07:50:52;;;;;;;13.48;7.38;;;19.10;99.90;;;;;;5016526;28;20080;-77
2023/06/13 07:53:18;;;;;;;11.68;7.15;;;19.30;99.90;;;;;;5021947;28;20026;-77
2023/06/13 07:55:47;;;;;;;15.35;7.47;;;19.30;99.90;;;;;;5022058;28;20105;-81
2023/06/13 07:58:16;;;;;;;13.77;7.35;;;19.50;99.90;;;;;;5004960;28;20025;-81
2023/06/13 08:00:41;;;;;;;16.92;7.20;;;19.60;99.90;;;;;;5020184;28;20476;-79
2023/06/13 08:03:07;;;;;;;14.95;6.90;;;19.70;99.90;;;;;;5019950;28;20013;-78
2023/06/13 08:05:33;;;;;;;8.88;6.60;;;19.80;99.90;;;;;;5029593;28;20026;-82
2023/06/13 08:07:59;;;;;;;11.68;6.97;;;19.90;99.90;;;;;;5013596;28;20041;-79
2023/06/13 08:10:28;;;;;;;12.57;7.05;;;20.00;99.90;;;;;;5026809;28;20045;-78
2023/06/13 08:12:53;;;;;;;11.65;6.57;;;20.10;99.90;;;;;;5037475;28;20026;-78
2023/06/13 08:15:19;;;;;;;9.63;6.30;;;20.20;99.30;;;;;;5024851;28;20124;-80
2023/06/13 08:17:45;;;;;;;11.30;6.32;;;20.40;98.30;;;;;;5006704;28;20116;-81
2023/06/13 08:20:11;;;;;;;11.38;5.97;;;20.40;97.10;;;;;;5017632;28;20038;-77
2023/06/13 08:22:40;;;;;;;8.48;6.13;;;20.50;96.10;;;;;;5013499;28;20029;-78
2023/06/13 08:25:09;;;;;;;9.43;5.95;;;20.70;94.40;;;;;;5013220;28;20025;-77
2023/06/13 08:27:36;;;;;;;8.35;5.72;;;20.80;93.50;;;;;;5011063;28;20029;-78
2023/06/13 08:30:04;;;;;;;8.70;5.65;;;20.90;91.80;;;;;;5006566;28;20025;-78
2023/06/13 08:32:31;;;;;;;14.25;6.45;;;21.00;91.00;;;;;;5012757;28;20383;-78
2023/06/13 08:34:57;;;;;;;7.55;5.03;;;21.10;90.60;;;;;;4995973;28;20490;-74
2023/06/13 08:37:23;;;;;;;11.25;6.00;;;21.20;90.40;;;;;;5013224;28;20025;-76
2023/06/13 08:39:48;;;;;;;12.45;6.22;;;21.30;89.80;;;;;;5005154;28;20483;-75
2023/06/13 08:42:14;;;;;;;8.68;5.70;;;21.40;88.20;;;;;;5008487;28;20092;-76
2023/06/13 08:44:41;;;;;;;7.90;5.85;;;21.50;86.00;;;;;;5011040;28;20117;-77
2023/06/13 08:47:08;;;;;;;11.77;6.05;;;21.60;85.10;;;;;;5009794;28;20105;-75
2023/06/13 08:49:34;;;;;;;8.75;5.50;;;21.70;84.50;;;;;;5003988;28;20038;-74
2023/06/13 08:52:02;;;;;;;10.88;5.88;;;21.80;83.20;;;;;;4998513;28;20026;-76
2023/06/13 08:54:30;;;;;;;14.48;5.68;;;21.90;82.40;;;;;;5012466;28;20088;-78
2023/06/13 08:56:57;;;;;;;14.57;6.45;;;22.00;81.90;;;;;;5010004;28;20028;-76
2023/06/13 08:59:26;;;;;;;7.05;5.00;;;22.20;81.60;;;;;;4995813;28;20076;-76
2023/06/13 09:01:56;;;;;;;11.57;5.72;;;22.30;81.00;;;;;;5013140;28;20021;-77
2023/06/13 09:04:27;;;;;;;8.73;6.22;;;22.40;80.40;;;;;;5013575;28;20117;-76
2023/06/13 09:06:56;;;;;;;9.00;5.45;;;22.50;79.90;;;;;;5013028;28;20369;-74
2023/06/13 09:09:23;;;;;;;12.00;6.07;;;22.70;78.60;;;;;;5013385;28;20099;-76
2023/06/13 09:11:50;;;;;;;6.53;4.70;;;22.80;78.20;;;;;;5013296;28;20030;-76
2023/06/13 09:14:17;;;;;;;8.32;5.03;;;23.00;77.60;;;;;;5013489;28;20033;-76
2023/06/13 09:16:43;;;;;;;11.27;6.28;;;23.10;76.80;;;;;;5013056;28;20022;-77
2023/06/13 09:19:09;;;;;;;11.52;6.85;;;23.20;75.70;;;;;;5014551;28;20121;-77
2023/06/13 09:21:36;;;;;;;12.40;6.53;;;23.20;75.30;;;;;;5012926;28;20120;-75
2023/06/13 09:24:03;;;;;;;11.13;6.03;;;23.40;74.90;;;;;;5013006;28;20112;-76
2023/06/13 09:26:29;;;;;;;8.02;5.10;;;23.50;74.90;;;;;;5013091;28;20028;-77
2023/06/13 09:28:57;;;;;;;9.30;6.28;;;23.70;75.00;;;;;;5012798;28;20026;-79
2023/06/13 09:31:23;;;;;;;10.02;5.43;;;23.80;74.50;;;;;;5013293;28;20026;-77
2023/06/13 09:33:48;;;;;;;7.90;5.15;;;24.00;73.70;;;;;;4995311;28;20548;-77
2023/06/13 09:36:14;;;;;;;14.65;5.93;;;24.10;72.70;;;;;;4994765;28;20026;-77
2023/06/13 09:38:41;;;;;;;10.05;5.40;;;24.10;72.30;;;;;;5011943;28;20112;-76
2023/06/13 09:41:11;;;;;;;8.65;5.47;;;24.30;71.90;;;;;;5013298;28;20030;-76
2023/06/13 09:43:38;;;;;;;;;;;24.40;71.40;;;;;;5013434;28;20026;-77
2023/06/13 09:46:03;;;;;;;10.80;6.22;;;24.50;71.50;;;;;;5012663;28;19909;-78
2023/06/13 09:48:29;;;;;;;10.90;5.38;;;24.70;71.00;;;;;;4995418;28;20026;-77
2023/06/13 09:50:55;;;;;;;8.57;5.72;;;24.90;70.30;;;;;;5013014;28;20017;-78
2023/06/13 09:53:22;;;;;;;10.07;5.82;;;25.10;70.20;;;;;;5012309;28;20104;-78
2023/06/13 09:55:50;;;;;;;8.98;5.20;;;25.10;69.60;;;;;;5012932;28;20058;-75
2023/06/13 09:58:17;;;;;;;9.40;6.50;;;25.20;68.70;;;;;;4995158;28;20053;-77
2023/06/13 10:00:42;;;;;;;12.40;5.93;;;25.30;68.50;;;;;;5010920;28;20030;-75
2023/06/13 10:03:08;;;;;;;9.60;5.30;;;25.40;68.40;;;;;;5012222;28;20018;-75
2023/06/13 10:05:34;;;;;;;14.07;6.40;;;25.60;68.30;;;;;;5012877;28;20036;-73
2023/06/13 10:08:00;;;;;;;11.88;6.50;;;25.70;67.50;;;;;;5013008;28;20087;-74
2023/06/13 10:10:27;;;;;;;9.57;6.32;;;25.70;67.10;;;;;;4995009;28;20432;-76
2023/06/13 10:13:02;;;;;;;13.90;6.43;;;25.70;66.60;;;;;;5012757;28;20293;-77
2023/06/13 10:15:37;;;;;;;10.30;6.75;;;25.80;66.80;;;;;;5012314;28;20037;-74
2023/06/13 10:18:11;;;;;;;12.68;6.38;;;25.90;67.00;;;;;;5012734;28;20033;-76
2023/06/13 10:20:39;;;;;;;9.95;7.07;;;26.00;67.40;;;;;;5032558;28;20114;-74
2023/06/13 10:23:06;;;;;;;9.82;6.18;;;26.00;67.40;;;;;;5032267;28;20045;-74
2023/06/13 10:25:33;;;;;;;13.73;5.82;;;26.20;67.60;;;;;;5014148;28;20029;-74
2023/06/13 10:28:12;;;;;;;9.98;6.70;;;26.30;67.80;;;;;;5030239;28;20056;-73
2023/06/13 10:30:43;;;;;;;8.85;6.55;;;26.40;68.00;;;;;;5013372;28;20378;-73
2023/06/13 10:34:09;;;;;;;13.75;7.32;;;26.50;67.80;;;;;;5031947;28;20025;-72
2023/06/13 10:37:20;;;;;;;12.27;7.32;;;26.60;67.10;;;;;;4989864;28;20068;-72
2023/06/13 10:39:46;;;;;;;16.42;6.75;;;26.60;67.40;;;;;;4971096;28;20041;-74
2023/06/13 10:42:31;;;;;;;11.90;7.18;;;26.80;67.90;;;;;;4972326;28;20035;-72
2023/06/13 10:45:08;;;;;;;15.23;7.22;;;26.90;68.00;;;;;;4954341;28;20417;-72
2023/06/13 10:47:36;;;;;;;12.57;7.18;;;27.10;67.70;;;;;;4971097;28;20038;-74
2023/06/13 10:50:03;;;;;;;12.90;6.35;;;27.20;66.90;;;;;;4974213;28;20027;-73
2023/06/13 10:52:29;;;;;;;12.82;6.25;;;27.40;66.50;;;;;;4974564;28;20027;-74
2023/06/13 10:54:58;;;;;;;12.75;6.60;;;27.50;66.20;;;;;;4974422;28;20424;-73
2023/06/13 10:57:50;;;;;;;11.75;6.43;;;27.60;66.10;;;;;;4974751;28;20110;-73
2023/06/13 11:00:30;;;;;;;12.63;6.68;;;27.80;66.10;;;;;;4974251;28;20034;-72
2023/06/13 11:03:05;;;;;;;;;;;28.00;65.30;;;;;;4973924;28;20022;-73
2023/06/13 11:05:49;;;;;;;12.50;6.43;;;28.10;65.00;;;;;;4974139;28;19906;-72
2023/06/13 11:08:19;;;;;;;13.18;6.47;;;28.20;63.70;;;;;;5027673;28;20041;-72
2023/06/13 11:10:50;;;;;;;9.65;6.15;;;28.30;63.60;;;;;;5017309;28;20032;-74
2023/06/13 11:13:26;;;;;;;14.57;6.63;;;28.40;63.10;;;;;;5035555;28;20033;-72
2023/06/13 11:15:57;;;;;;;15.15;7.00;;;28.40;63.00;;;;;;5035471;28;20035;-72
2023/06/13 11:18:23;;;;;;;13.52;6.25;;;28.40;62.70;;;;;;5035360;28;20069;-72
2023/06/13 11:20:53;;;;;;;14.07;5.93;;;28.30;62.60;;;;;;5034584;28;20591;-71
2023/06/13 11:23:23;;;;;;;11.25;6.22;;;28.30;62.40;;;;;;5035409;28;20589;-71
2023/06/13 11:25:50;;;;;;;13.65;5.72;;;28.30;62.40;;;;;;5017090;28;20037;-73
2023/06/13 11:28:17;;;;;;;10.13;5.97;;;28.20;62.00;;;;;;5017351;28;20037;-72
2023/06/13 11:30:44;;;;;;;7.03;5.32;;;28.30;61.30;;;;;;5035362;28;20014;-72
2023/06/13 11:33:11;;;;;;;9.50;6.15;;;28.30;60.20;;;;;;5035712;28;20029;-71
2023/06/13 11:35:41;;;;;;;12.38;5.80;;;28.40;59.90;;;;;;5017666;28;20394;-71
2023/06/13 11:38:18;;;;;;;13.50;5.88;;;28.50;59.80;;;;;;5035428;28;20021;-71
2023/06/13 11:40:46;;;;;;;8.40;5.45;;;28.60;59.10;;;;;;5034777;28;20025;-72
2023/06/13 11:43:13;;;;;;;16.17;6.10;;;28.60;59.30;;;;;;5034122;28;20029;-71
2023/06/13 11:45:40;;;;;;;11.73;5.90;;;28.70;59.30;;;;;;5034792;28;20053;-70
2023/06/13 11:48:06;;;;;;;15.38;5.78;;;28.80;59.10;;;;;;5032577;28;20044;-72
2023/06/13 11:50:35;;;;;;;9.88;5.38;;;28.90;58.80;;;;;;5015022;28;20075;-72
2023/06/13 11:53:05;;;;;;;8.73;5.40;;;29.00;58.60;;;;;;5014824;28;20033;-71
2023/06/13 11:55:31;;;;;;;;;;;29.10;58.20;;;;;;5031766;28;20378;-74
2023/06/13 11:57:56;;;;;;;12.93;5.25;;;29.40;58.10;;;;;;5033135;28;19901;-71
2023/06/13 12:00:26;;;;;;;11.80;5.80;;;29.60;57.50;;;;;;5031215;28;20041;-71
2023/06/13 12:02:52;;;;;;;10.85;4.80;;;29.90;56.70;;;;;;5007190;28;20413;-71
2023/06/13 12:05:19;;;;;;;14.70;5.63;;;30.00;56.20;;;;;;5013310;28;20083;-70
2023/06/13 12:07:45;;;;;;;9.65;5.30;;;30.10;55.30;;;;;;5007658;28;20466;-70
2023/06/13 12:10:15;;;;;;;9.13;5.28;;;29.90;54.10;;;;;;5020796;28;20025;-74
2023/06/13 12:12:41;;;;;;;10.88;5.25;;;29.80;54.30;;;;;;5018770;28;20187;-71
2023/06/13 12:15:13;;;;;;;9.50;5.43;;;29.80;54.10;;;;;;5014323;28;20132;-69
2023/06/13 12:17:56;;;;;;;9.45;4.82;;;29.90;54.40;;;;;;5015057;28;20022;-70
2023/06/13 12:20:24;;;;;;;8.63;4.85;;;30.20;54.20;;;;;;5014892;28;20046;-70
2023/06/13 12:23:00;;;;;;;7.18;4.50;;;30.40;54.30;;;;;;5014776;28;20018;-71
2023/06/13 12:25:31;;;;;;;6.70;4.78;;;30.50;53.60;;;;;;5020928;28;20087;-71
2023/06/13 12:28:01;;;;;;;10.38;4.90;;;30.40;53.10;;;;;;5034025;28;20022;-73
2023/06/13 12:30:29;;;;;;;9.45;5.30;;;30.40;52.80;;;;;;5034173;28;20497;-72
2023/06/13 12:32:57;;;;;;;7.25;4.60;;;30.30;52.80;;;;;;5034301;28;20048;-70
2023/06/13 12:35:29;;;;;;;9.60;5.18;;;30.30;52.70;;;;;;5034169;28;20037;-71
2023/06/13 12:38:00;;;;;;;12.07;5.13;;;30.30;52.20;;;;;;5033922;28;20041;-72
2023/06/13 12:40:33;;;;;;;8.27;4.75;;;30.30;52.40;;;;;;5033967;28;20067;-71
2023/06/13 12:43:01;;;;;;;6.65;4.60;;;30.30;52.30;;;;;;5033888;28;20360;-71
2023/06/13 12:45:28;;;;;;;7.22;4.85;;;30.30;52.30;;;;;;5033848;28;20040;-72